Time;durP1;ratioP1;P1;durP2;ratioP2;P2;SDS_P1;SDS_P2;PMS_P1;PMS_P2;Temp;Humidity;BMP_temperature;BMP_pressure;BME280_temperature;BME280_humidity;BME280_pressure;Samples;Min_cycle;Max_cycle;Signal;HPM_P1;HPM_P2
2022/09/15 00:01:06;;;;;;;;;;;;;;;28.05;44.84;93641.84;5039786;28;9068;-86
2022/09/15 00:03:33;;;;;;;;;;;;;;;28.05;44.68;93639.09;5036370;28;8837;-87
2022/09/15 00:05:59;;;;;;;;;;;;;;;28.07;44.43;93639.28;5037404;28;8770;-86
2022/09/15 00:08:25;;;;;;;;;;;;;;;28.06;44.44;93627.47;5054581;28;7390;-87
2022/09/15 00:10:57;;;;;;;;;;;;;;;28.09;44.65;93631.94;5039590;28;8812;-87
2022/09/15 00:13:27;;;;;;;;;;;;;;;28.08;44.38;93621.38;5054926;28;8975;-86
2022/09/15 00:15:54;;;;;;;;;;;;;;;28.03;44.17;93609.22;5036940;28;8278;-86
2022/09/15 00:18:20;;;;;;;;;;;;;;;28.03;44.79;93608.47;5036084;28;7060;-87
2022/09/15 00:20:46;;;;;;;;;;;;;;;28.09;44.42;93614.59;5038726;28;9032;-87
2022/09/15 00:23:16;;;;;;;;;;;;;;;28.09;44.63;93614.59;5035451;28;7414;-87
2022/09/15 00:25:52;;;;;;;;;;;;;;;28.10;44.75;93613.31;5054604;28;7181;-87
2022/09/15 00:28:21;;;;;;;;;;;;;;;28.04;44.30;93601.66;5038649;28;8736;-87
2022/09/15 00:30:50;;;;;;;;;;;;;;;28.07;44.42;93603.34;5041783;28;8735;-87
2022/09/15 00:33:27;;;;;;;;;;;;;;;28.08;44.47;93610.34;5056189;28;9086;-87
2022/09/15 00:36:00;;;;;;;;;;;;;;;28.05;44.82;93600.38;5036339;28;8760;-86
2022/09/15 00:38:31;;;;;;;;;;;;;;;28.05;44.70;93603.88;5048339;28;8582;-86
2022/09/15 00:40:59;;;;;;;;;;;;;;;28.06;44.38;93593.56;5057600;28;9165;-86
2022/09/15 00:43:51;;;;;;;;;;;;;;;28.07;44.52;93595.78;5053934;28;7448;-87
2022/09/15 00:46:24;;;;;;;;;;;;;;;28.06;44.61;93583.25;5035913;28;7235;-86
2022/09/15 00:48:59;;;;;;;;;;;;;;;28.07;44.44;93592.28;5036597;28;7215;-86
2022/09/15 00:52:06;;;;;;;;;;;;;;;28.06;44.51;93597.06;5036855;28;9001;-87
2022/09/15 00:54:41;;;;;;;;;;;;;;;28.04;44.26;93587.84;4942743;28;9065;-86
2022/09/15 00:57:17;;;;;;;;;;;;;;;28.07;44.93;93584.00;4962685;28;9110;-87
2022/09/15 00:59:54;;;;;;;;;;;;;;;28.06;44.83;93588.03;4947689;28;8701;-86
2022/09/15 01:02:31;;;;;;;;;;;;;;;28.04;44.79;93582.31;4956700;28;8753;-86
2022/09/15 01:05:06;;;;;;;;;;;;;;;28.04;44.58;93588.56;4981080;28;8731;-86
2022/09/15 01:07:47;;;;;;;;;;;;;;;28.05;44.72;93583.78;4962280;28;8901;-87
2022/09/15 01:10:22;;;;;;;;;;;;;;;28.04;44.41;93583.03;4948235;28;7334;-87
2022/09/15 01:12:58;;;;;;;;;;;;;;;28.04;44.61;93574.00;4958846;28;8992;-87
2022/09/15 01:15:52;;;;;;;;;;;;;;;28.01;44.41;93559.28;4956195;28;8817;-86
2022/09/15 01:18:44;;;;;;;;;;;;;;;28.05;44.58;93575.50;4942154;28;8757;-87
2022/09/15 01:21:31;;;;;;;;;;;;;;;28.04;44.41;93580.28;4955562;28;8668;-88
2022/09/15 01:24:14;;;;;;;;;;;;;;;28.03;44.53;93581.59;4964591;28;7301;-86
2022/09/15 01:27:18;;;;;;;;;;;;;;;28.04;44.71;93574.00;5053118;28;9100;-86
2022/09/15 01:30:07;;;;;;;;;;;;;;;28.00;44.64;93568.09;4977390;28;7234;-87
2022/09/15 01:33:04;;;;;;;;;;;;;;;27.99;44.70;93561.09;4978879;28;9340;-87
2022/09/15 01:35:51;;;;;;;;;;;;;;;27.99;44.58;93567.34;4977504;28;9048;-86
2022/09/15 01:39:01;;;;;;;;;;;;;;;27.99;44.87;93569.41;4978031;28;8782;-87
2022/09/15 01:41:35;;;;;;;;;;;;;;;27.96;44.81;93546.31;4893746;29;9136;-87
2022/09/15 01:44:29;;;;;;;;;;;;;;;27.95;44.30;93547.59;4885923;29;8605;-87
2022/09/15 01:47:01;;;;;;;;;;;;;;;27.96;44.35;93553.88;4908582;29;6852;-86
2022/09/15 01:49:45;;;;;;;;;;;;;;;27.96;44.92;93545.56;4893194;29;9060;-86
2022/09/15 01:52:18;;;;;;;;;;;;;;;27.96;44.84;93551.09;4907365;29;7218;-86
2022/09/15 01:54:50;;;;;;;;;;;;;;;27.92;44.93;93539.66;4900579;29;9068;-87
2022/09/15 01:57:20;;;;;;;;;;;;;;;27.97;44.83;93544.31;4908791;29;9107;-86
2022/09/15 01:59:49;;;;;;;;;;;;;;;27.96;45.22;93538.03;4907431;29;9298;-87
2022/09/15 02:02:33;;;;;;;;;;;;;;;27.94;44.70;93524.03;4898853;29;8810;-87
2022/09/15 02:05:13;;;;;;;;;;;;;;;27.93;44.57;93516.25;4908953;28;9102;-86
2022/09/15 02:07:46;;;;;;;;;;;;;;;27.96;44.88;93529.75;4980344;28;9047;-86
2022/09/15 02:10:25;;;;;;;;;;;;;;;27.95;44.73;93516.47;4967668;28;8748;-86
2022/09/15 02:13:00;;;;;;;;;;;;;;;27.96;44.92;93517.94;4965221;28;8762;-87
2022/09/15 02:15:47;;;;;;;;;;;;;;;27.93;44.92;93513.50;4967683;28;9025;-87
2022/09/15 02:18:33;;;;;;;;;;;;;;;27.94;45.23;93515.72;5035973;28;8717;-86
2022/09/15 02:21:17;;;;;;;;;;;;;;;27.94;44.74;93512.97;5036264;28;7223;-86
2022/09/15 02:23:53;;;;;;;;;;;;;;;27.92;44.75;93512.78;5051237;28;7111;-86
2022/09/15 02:26:27;;;;;;;;;;;;;;;27.93;44.84;93516.25;5031723;28;9091;-87
2022/09/15 02:29:02;;;;;;;;;;;;;;;27.93;44.60;93521.78;5036002;28;9297;-86
2022/09/15 02:31:39;;;;;;;;;;;;;;;27.93;44.52;93516.25;5023133;28;8738;-86
2022/09/15 02:34:18;;;;;;;;;;;;;;;27.92;44.87;93512.03;5035889;28;7118;-87
2022/09/15 02:36:47;;;;;;;;;;;;;;;27.90;44.21;93520.13;5050421;28;6998;-87
2022/09/15 02:39:18;;;;;;;;;;;;;;;27.91;44.62;93522.34;5023202;28;9516;-86
2022/09/15 02:41:44;;;;;;;;;;;;;;;27.87;44.87;93521.97;5054397;28;9072;-87
2022/09/15 02:44:10;;;;;;;;;;;;;;;27.92;44.11;93523.09;5052470;28;8767;-87
2022/09/15 02:46:38;;;;;;;;;;;;;;;27.89;44.89;93524.91;5034478;28;9079;-87
2022/09/15 02:49:07;;;;;;;;;;;;;;;27.91;44.87;93518.81;5036406;28;8758;-87
2022/09/15 02:51:32;;;;;;;;;;;;;;;27.92;44.55;93531.38;5051069;28;8925;-86
2022/09/15 02:54:01;;;;;;;;;;;;;;;27.92;44.64;93534.13;5052617;28;7442;-86
2022/09/15 02:56:27;;;;;;;;;;;;;;;27.86;44.54;93526.00;5034651;28;7040;-86
2022/09/15 02:58:53;;;;;;;;;;;;;;;27.86;44.64;93530.81;5034268;28;9078;-87
2022/09/15 03:01:22;;;;;;;;;;;;;;;27.89;44.55;93541.50;5036363;28;8920;-86
2022/09/15 03:03:47;;;;;;;;;;;;;;;27.90;44.90;93539.47;5021699;28;9184;-86
2022/09/15 03:06:20;;;;;;;;;;;;;;;27.89;44.47;93541.50;5035275;28;7262;-87
2022/09/15 03:08:53;;;;;;;;;;;;;;;27.91;44.64;93538.91;5038027;28;6865;-87
2022/09/15 03:11:27;;;;;;;;;;;;;;;27.88;44.49;93536.53;5036571;28;9147;-87
2022/09/15 03:13:59;;;;;;;;;;;;;;;27.87;44.67;93548.84;5035749;28;8609;-87
2022/09/15 03:16:27;;;;;;;;;;;;;;;27.88;44.62;93550.34;5050457;28;8832;-86
2022/09/15 03:18:55;;;;;;;;;;;;;;;27.88;44.99;93553.09;5021813;28;8631;-86
2022/09/15 03:21:26;;;;;;;;;;;;;;;27.88;44.93;93551.09;5019966;28;9158;-87
2022/09/15 03:23:52;;;;;;;;;;;;;;;27.88;44.57;93548.31;5033625;28;7253;-87
2022/09/15 03:26:22;;;;;;;;;;;;;;;27.87;44.76;93548.84;5030150;28;7394;-86
2022/09/15 03:28:49;;;;;;;;;;;;;;;27.84;44.75;93545.16;5051006;28;9215;-87
2022/09/15 03:31:15;;;;;;;;;;;;;;;27.86;44.40;93541.84;5035894;28;9024;-86
2022/09/15 03:33:41;;;;;;;;;;;;;;;27.85;44.58;93537.59;5037003;28;9061;-87
2022/09/15 03:36:08;;;;;;;;;;;;;;;27.86;45.07;93547.38;5034368;28;9130;-87
2022/09/15 03:38:34;;;;;;;;;;;;;;;27.80;44.49;93544.75;5037680;28;9034;-86
2022/09/15 03:41:06;;;;;;;;;;;;;;;27.81;44.76;93542.75;5053143;28;8914;-87
2022/09/15 03:43:37;;;;;;;;;;;;;;;27.81;44.54;93546.25;5024169;28;8800;-87
2022/09/15 03:46:04;;;;;;;;;;;;;;;27.82;44.45;93553.25;5037847;28;9252;-87
2022/09/15 03:48:33;;;;;;;;;;;;;;;27.81;44.75;93543.50;5056801;28;7445;-87
2022/09/15 03:51:01;;;;;;;;;;;;;;;27.81;44.69;93553.81;5037861;28;8897;-87
2022/09/15 03:53:30;;;;;;;;;;;;;;;27.81;44.87;93539.97;5037689;28;8762;-87
2022/09/15 03:56:08;;;;;;;;;;;;;;;27.79;44.57;93548.09;5054006;28;9033;-87
2022/09/15 03:58:36;;;;;;;;;;;;;;;27.79;44.85;93537.78;5039325;28;7022;-86
2022/09/15 04:01:06;;;;;;;;;;;;;;;27.80;44.78;93544.03;5037870;28;7238;-86
2022/09/15 04:03:32;;;;;;;;;;;;;;;27.79;44.64;93542.56;5038993;28;8773;-87
2022/09/15 04:05:59;;;;;;;;;;;;;;;27.78;44.38;93544.56;5052883;28;7527;-87
2022/09/15 04:08:32;;;;;;;;;;;;;;;27.80;45.11;93544.03;5039259;28;8743;-86
2022/09/15 04:11:02;;;;;;;;;;;;;;;27.80;44.55;93549.53;5038846;28;9080;-86
2022/09/15 04:13:30;;;;;;;;;;;;;;;27.79;44.86;93537.03;5042818;28;8769;-87
2022/09/15 04:16:08;;;;;;;;;;;;;;;27.80;44.53;93539.25;5037326;28;9112;-87
2022/09/15 04:18:34;;;;;;;;;;;;;;;27.77;44.60;93534.06;5038904;28;9355;-86
2022/09/15 04:21:05;;;;;;;;;;;;;;;27.79;45.23;93540.53;5039592;28;8891;-87
2022/09/15 04:23:41;;;;;;;;;;;;;;;27.76;45.06;93549.16;5039366;28;8660;-87
2022/09/15 04:26:20;;;;;;;;;;;;;;;27.77;44.46;93540.34;5054930;28;8590;-87
2022/09/15 04:28:48;;;;;;;;;;;;;;;27.75;44.73;93542.91;5041434;28;9077;-87
2022/09/15 04:31:16;;;;;;;;;;;;;;;27.76;44.76;93538.84;5042536;28;8975;-86
2022/09/15 04:33:52;;;;;;;;;;;;;;;27.73;44.39;93528.88;5039666;28;8913;-86
2022/09/15 04:36:28;;;;;;;;;;;;;;;27.77;44.50;93536.84;5038663;28;7118;-87
2022/09/15 04:38:55;;;;;;;;;;;;;;;27.77;44.65;93532.06;5041404;28;8749;-86
2022/09/15 04:41:25;;;;;;;;;;;;;;;27.73;44.59;93526.13;5058535;28;7032;-88
2022/09/15 04:43:51;;;;;;;;;;;;;;;27.74;44.62;93526.88;5040558;28;9308;-88
2022/09/15 04:46:18;;;;;;;;;;;;;;;27.75;44.88;93522.81;5041676;28;9050;-87
2022/09/15 04:48:47;;;;;;;;;;;;;;;27.76;44.59;93529.81;5038698;28;7380;-87
2022/09/15 04:51:17;;;;;;;;;;;;;;;27.73;44.51;93537.16;5036038;28;8746;-87
2022/09/15 04:53:46;;;;;;;;;;;;;;;27.71;44.56;93525.22;5065299;28;9116;-86
2022/09/15 04:56:20;;;;;;;;;;;;;;;27.66;45.00;93531.63;5051065;28;8868;-86
2022/09/15 04:58:52;;;;;;;;;;;;;;;27.69;44.85;93533.31;5050447;28;7246;-87
2022/09/15 05:01:27;;;;;;;;;;;;;;;27.61;45.37;93525.72;5065542;28;8740;-86
2022/09/15 05:03:54;;;;;;;;;;;;;;;27.67;44.18;93533.09;5059906;28;8921;-87
2022/09/15 05:06:23;;;;;;;;;;;;;;;27.65;44.90;93528.13;5042222;28;8793;-87
2022/09/15 05:08:51;;;;;;;;;;;;;;;27.58;45.13;93521.25;5042744;28;8679;-87
2022/09/15 05:11:19;;;;;;;;;;;;;;;27.68;44.78;93523.53;5047793;28;8739;-88
2022/09/15 05:13:46;;;;;;;;;;;;;;;27.71;44.58;93528.69;5064212;28;9014;-87
2022/09/15 05:16:21;;;;;;;;;;;;;;;27.73;44.58;93517.81;5065856;28;7284;-88
2022/09/15 05:18:50;;;;;;;;;;;;;;;27.76;44.68;93522.28;5077682;28;8712;-88
2022/09/15 05:21:20;;;;;;;;;;;;;;;27.77;44.46;93520.25;5050445;28;7119;-87
2022/09/15 05:23:47;;;;;;;;;;;;;;;27.78;44.37;93516.94;5044450;28;8593;-88
2022/09/15 05:26:17;;;;;;;;;;;;;;;27.73;44.49;93517.13;5043675;28;8978;-87
2022/09/15 05:28:43;;;;;;;;;;;;;;;27.78;44.17;93530.00;5046163;28;9067;-87
2022/09/15 05:31:33;;;;;;;;;;;;;;;27.76;44.52;93527.06;5064354;28;9324;-88
2022/09/15 05:34:04;;;;;;;;;;;;;;;27.75;44.63;93531.88;5054221;28;8781;-88
2022/09/15 05:36:33;;;;;;;;;;;;;;;27.72;44.84;93524.66;5059399;28;7540;-88
2022/09/15 05:39:00;;;;;;;;;;;;;;;27.75;45.11;93525.59;5073804;28;8727;-89
2022/09/15 05:41:28;;;;;;;;;;;;;;;27.76;44.94;93530.56;5055541;28;7696;-88
2022/09/15 05:43:56;;;;;;;;;;;;;;;27.75;44.41;93528.34;5058634;28;8805;-89
2022/09/15 05:46:24;;;;;;;;;;;;;;;27.73;44.65;93528.88;5073397;28;8751;-88
2022/09/15 05:48:54;;;;;;;;;;;;;;;27.71;44.08;93534.22;5046685;28;6894;-88
2022/09/15 05:51:23;;;;;;;;;;;;;;;27.62;43.04;93535.47;5048431;28;8632;-88
2022/09/15 05:53:50;;;;;;;;;;;;;;;27.58;42.44;93531.56;5049890;28;7030;-89
2022/09/15 05:56:16;;;;;;;;;;;;;;;27.53;42.05;93527.69;5048196;28;7062;-88
2022/09/15 05:58:46;;;;;;;;;;;;;;;27.48;41.81;93531.34;5048978;28;8848;-88
2022/09/15 06:01:17;;;;;;;;;;;;;;;27.45;41.79;93542.72;5046685;28;9108;-88
2022/09/15 06:03:43;;;;;;;;;;;;;;;27.38;40.88;93529.63;5032368;28;8728;-88
2022/09/15 06:06:11;;;;;;;;;;;;;;;27.40;41.29;93538.13;5042698;28;9093;-88
2022/09/15 06:08:43;;;;;;;;;;;;;;;27.39;41.32;93540.13;5045956;28;9453;-88
2022/09/15 06:11:15;;;;;;;;;;;;;;;27.41;41.31;93545.84;5062440;28;7068;-88
2022/09/15 06:13:42;;;;;;;;;;;;;;;27.42;41.05;93549.34;5046669;28;9027;-88
2022/09/15 06:16:13;;;;;;;;;;;;;;;27.40;41.47;93536.09;5043195;28;8896;-88
2022/09/15 06:18:43;;;;;;;;;;;;;;;27.46;41.56;93546.97;5043887;28;8861;-88
2022/09/15 06:21:20;;;;;;;;;;;;;;;27.48;41.72;93550.69;5043132;28;7345;-88
2022/09/15 06:24:02;;;;;;;;;;;;;;;27.47;42.06;93546.44;5052428;28;9083;-88
2022/09/15 06:26:33;;;;;;;;;;;;;;;27.51;41.91;93557.16;5045430;28;8833;-87
2022/09/15 06:29:04;;;;;;;;;;;;;;;27.54;42.23;93556.03;5048928;28;9279;-87
2022/09/15 06:31:37;;;;;;;;;;;;;;;27.56;42.24;93556.97;5048536;28;9281;-88
2022/09/15 06:34:04;;;;;;;;;;;;;;;27.58;42.25;93561.97;5047197;28;8749;-88
2022/09/15 06:36:32;;;;;;;;;;;;;;;27.59;42.16;93564.19;5055588;28;7571;-88
2022/09/15 06:38:58;;;;;;;;;;;;;;;27.56;42.20;93570.03;5047174;28;9034;-87
2022/09/15 06:41:27;;;;;;;;;;;;;;;27.59;42.35;93574.50;5049446;28;8794;-87
2022/09/15 06:43:54;;;;;;;;;;;;;;;27.60;42.31;93576.72;5042450;28;9055;-88
2022/09/15 06:46:27;;;;;;;;;;;;;;;27.59;42.22;93575.25;5041584;28;9321;-87
2022/09/15 06:48:53;;;;;;;;;;;;;;;27.61;42.93;93577.47;5037302;28;9083;-88
2022/09/15 06:51:30;;;;;;;;;;;;;;;27.60;42.66;93585.00;5052770;28;8765;-88
2022/09/15 06:53:56;;;;;;;;;;;;;;;27.60;42.64;93575.97;5041684;28;8593;-88
2022/09/15 06:56:25;;;;;;;;;;;;;;;27.66;42.29;93584.13;5034586;28;7022;-88
2022/09/15 06:58:51;;;;;;;;;;;;;;;27.65;42.24;93583.38;5035561;28;8611;-88
2022/09/15 07:01:30;;;;;;;;;;;;;;;27.67;42.33;93588.34;5041475;28;8860;-87
2022/09/15 07:03:59;;;;;;;;;;;;;;;27.67;42.74;93596.63;5042570;28;9030;-88
2022/09/15 07:06:33;;;;;;;;;;;;;;;27.61;42.85;93589.25;5043041;28;7092;-88
2022/09/15 07:09:01;;;;;;;;;;;;;;;27.63;42.21;93602.50;5047059;28;7440;-87
2022/09/15 07:11:28;;;;;;;;;;;;;;;27.65;42.10;93616.53;5044046;28;7368;-88
2022/09/15 07:14:01;;;;;;;;;;;;;;;27.62;42.80;93601.75;5048239;28;9105;-87
2022/09/15 07:16:32;;;;;;;;;;;;;;;27.66;42.85;93611.75;5047451;28;7611;-88
2022/09/15 07:19:02;;;;;;;;;;;;;;;27.63;42.84;93619.84;5064557;28;8727;-88
2022/09/15 07:21:28;;;;;;;;;;;;;;;27.59;42.43;93622.22;5047688;28;9084;-87
2022/09/15 07:23:56;;;;;;;;;;;;;;;27.60;42.97;93642.25;5047717;28;9047;-88
2022/09/15 07:26:25;;;;;;;;;;;;;;;27.63;43.07;93644.69;5034240;28;7276;-88
2022/09/15 07:28:58;;;;;;;;;;;;;;;27.61;42.79;93635.47;5068975;28;7470;-88
2022/09/15 07:31:27;;;;;;;;;;;;;;;27.63;43.15;93646.72;5050845;28;9288;-88
2022/09/15 07:33:55;;;;;;;;;;;;;;;27.62;42.69;93642.50;5052533;28;7491;-87
2022/09/15 07:36:21;;;;;;;;;;;;;;;27.59;43.14;93638.03;5064874;28;9181;-88
2022/09/15 07:38:48;;;;;;;;;;;;;;;27.60;42.87;93643.00;5051924;28;7265;-88
2022/09/15 07:41:17;;;;;;;;;;;;;;;27.58;43.59;93637.28;5053469;28;6869;-88
2022/09/15 07:43:52;;;;;;;;;;;;;;;27.60;43.33;93628.44;5069856;28;8781;-87
2022/09/15 07:46:20;;;;;;;;;;;;;;;27.58;43.37;93640.06;5049595;28;9344;-88
2022/09/15 07:48:51;;;;;;;;;;;;;;;27.59;43.20;93635.28;5054834;28;9120;-87
2022/09/15 07:51:18;;;;;;;;;;;;;;;27.59;43.61;93643.56;5057813;28;7288;-87
2022/09/15 07:53:48;;;;;;;;;;;;;;;27.57;43.35;93646.88;5055173;28;9021;-87
2022/09/15 07:56:17;;;;;;;;;;;;;;;27.60;43.19;93643.00;5068274;28;9058;-87
2022/09/15 07:58:44;;;;;;;;;;;;;;;27.59;43.53;93644.31;5049151;28;9060;-87
2022/09/15 08:01:15;;;;;;;;;;;;;;;27.58;43.30;93634.53;5050674;28;7265;-87
2022/09/15 08:03:47;;;;;;;;;;;;;;;27.57;43.85;93633.06;5055625;28;7083;-88
2022/09/15 08:06:19;;;;;;;;;;;;;;;27.57;43.59;93652.41;5045974;28;8686;-87
2022/09/15 08:08:49;;;;;;;;;;;;;;;27.55;43.73;93654.22;5048723;28;6889;-87
2022/09/15 08:11:18;;;;;;;;;;;;;;;27.54;43.41;93656.22;5044669;28;9162;-87
2022/09/15 08:13:51;;;;;;;;;;;;;;;27.59;43.37;93660.13;5041140;28;7591;-87
2022/09/15 08:16:24;;;;;;;;;;;;;;;27.56;43.76;93661.22;5069686;28;7252;-88
2022/09/15 08:18:54;;;;;;;;;;;;;;;27.56;44.03;93658.44;5054655;28;9228;-87
2022/09/15 08:21:22;;;;;;;;;;;;;;;27.57;44.00;93663.44;5065450;28;8623;-87
2022/09/15 08:23:57;;;;;;;;;;;;;;;27.60;43.67;93667.13;5050871;28;8754;-87
2022/09/15 08:26:25;;;;;;;;;;;;;;;27.62;43.94;93670.84;5050036;28;8749;-88
2022/09/15 08:28:52;;;;;;;;;;;;;;;27.60;43.75;93665.09;5056779;28;7073;-87
2022/09/15 08:31:22;;;;;;;;;;;;;;;27.57;43.44;93663.44;5054782;28;8992;-88
2022/09/15 08:33:50;;;;;;;;;;;;;;;27.60;43.74;93673.41;5049921;28;7492;-87
2022/09/15 08:36:19;;;;;;;;;;;;;;;27.59;43.83;93677.47;5045900;28;9022;-87
2022/09/15 08:38:48;;;;;;;;;;;;;;;27.58;44.02;93680.75;5048944;28;8592;-87
2022/09/15 08:41:24;;;;;;;;;;;;;;;27.55;43.95;93679.81;5036997;28;7577;-87
2022/09/15 08:44:01;;;;;;;;;;;;;;;27.56;43.92;93675.75;5068796;28;7315;-88
2022/09/15 08:46:49;;;;;;;;;;;;;;;27.56;43.94;93673.00;5055066;28;8764;-88
2022/09/15 08:49:29;;;;;;;;;;;;;;;27.57;43.91;93666.22;5053581;28;7666;-87
2022/09/15 08:52:03;;;;;;;;;;;;;;;27.60;43.97;93670.63;5052545;28;9422;-88
2022/09/15 08:54:34;;;;;;;;;;;;;;;27.61;43.88;93669.38;5069000;28;9118;-88
2022/09/15 08:57:05;;;;;;;;;;;;;;;27.60;44.46;93665.09;5053535;28;7148;-88
2022/09/15 08:59:36;;;;;;;;;;;;;;;27.58;43.91;93658.63;5050946;28;8734;-88
2022/09/15 09:02:14;;;;;;;;;;;;;;;27.62;44.04;93651.50;5069535;28;9039;-87
2022/09/15 09:05:08;;;;;;;;;;;;;;;27.61;44.11;93647.25;5069527;28;8761;-87
2022/09/15 09:07:58;;;;;;;;;;;;;;;27.60;44.13;93645.78;5052867;28;7011;-88
2022/09/15 09:10:40;;;;;;;;;;;;;;;27.61;44.13;93654.81;5048210;28;9010;-87
2022/09/15 09:13:27;;;;;;;;;;;;;;;27.61;44.07;93654.81;5048631;28;8802;-87
2022/09/15 09:16:23;;;;;;;;;;;;;;;27.62;44.03;93651.50;5047146;28;7070;-86
2022/09/15 09:19:11;;;;;;;;;;;;;;;27.59;44.00;93651.84;5044918;28;7166;-86
2022/09/15 09:22:00;;;;;;;;;;;;;;;27.57;44.57;93666.22;5050986;28;7048;-87
2022/09/15 09:24:27;;;;;;;;;;;;;;;27.56;44.29;93663.97;5070814;28;7360;-87
2022/09/15 09:26:55;;;;;;;;;;;;;;;27.58;44.06;93661.41;5071519;28;7665;-87
2022/09/15 09:29:33;;;;;;;;;;;;;;;27.58;44.91;93662.16;5043360;28;6869;-87
2022/09/15 09:32:02;;;;;;;;;;;;;;;27.59;44.21;93660.13;5054926;28;8746;-87
2022/09/15 09:34:55;;;;;;;;;;;;;;;27.58;44.41;93644.81;5053099;28;7266;-87
2022/09/15 09:37:21;;;;;;;;;;;;;;;27.60;43.90;93648.53;4993982;28;7352;-87
2022/09/15 09:39:47;;;;;;;;;;;;;;;27.60;44.40;93650.56;4957577;28;8881;-87
2022/09/15 09:42:17;;;;;;;;;;;;;;;27.59;44.50;93649.09;4957611;28;9088;-87
2022/09/15 09:44:47;;;;;;;;;;;;;;;27.59;44.50;93657.38;4966573;28;8896;-87
2022/09/15 09:47:14;;;;;;;;;;;;;;;27.57;44.64;93654.41;4964366;28;7432;-87
2022/09/15 09:49:47;;;;;;;;;;;;;;;27.59;44.47;93657.38;4960267;28;8622;-87
2022/09/15 09:52:33;;;;;;;;;;;;;;;27.59;44.69;93655.34;4960454;28;9421;-87
2022/09/15 09:55:29;;;;;;;;;;;;;;;27.60;44.62;93648.53;4998478;28;8728;-87
2022/09/15 09:58:19;;;;;;;;;;;;;;;27.59;44.81;93644.31;4982808;28;8678;-87
2022/09/15 10:00:50;;;;;;;;;;;;;;;27.59;44.78;93644.31;4975152;28;8760;-87
2022/09/15 10:03:24;;;;;;;;;;;;;;;27.61;44.62;93647.25;4968315;28;8692;-87
2022/09/15 10:06:10;;;;;;;;;;;;;;;27.59;44.67;93636.03;4960576;28;7038;-87
2022/09/15 10:08:55;;;;;;;;;;;;;;;27.59;44.39;93641.53;4981448;28;8998;-86
2022/09/15 10:11:42;;;;;;;;;;;;;;;27.60;44.45;93645.78;4961469;28;8744;-86
2022/09/15 10:14:20;;;;;;;;;;;;;;;27.59;44.35;93652.59;4998195;28;8921;-87
2022/09/15 10:16:57;;;;;;;;;;;;;;;27.60;44.38;93656.81;5046100;28;7228;-87
2022/09/15 10:19:26;;;;;;;;;;;;;;;27.61;44.86;93652.78;5042317;28;9040;-87
2022/09/15 10:21:58;;;;;;;;;;;;;;;27.59;44.52;93646.31;5055678;28;9703;-87
2022/09/15 10:24:33;;;;;;;;;;;;;;;27.61;44.39;93641.00;5045876;28;8960;-87
2022/09/15 10:27:24;;;;;;;;;;;;;;;27.59;44.42;93644.31;5046382;28;8805;-87
2022/09/15 10:29:50;;;;;;;;;;;;;;;27.58;44.25;93645.56;5046400;28;8909;-87
2022/09/15 10:32:23;;;;;;;;;;;;;;;27.57;44.37;93641.34;5044778;28;8763;-87
2022/09/15 10:35:05;;;;;;;;;;;;;;;27.58;44.71;93634.53;5063425;28;7279;-87
2022/09/15 10:37:56;;;;;;;;;;;;;;;27.56;44.53;93642.63;5048432;28;9126;-87
2022/09/15 10:40:42;;;;;;;;;;;;;;;27.56;44.72;93636.34;5045235;28;7037;-87
2022/09/15 10:43:23;;;;;;;;;;;;;;;27.56;44.38;93645.38;5043808;28;9012;-86
2022/09/15 10:46:03;;;;;;;;;;;;;;;27.56;44.64;93639.84;5048705;28;8574;-87
2022/09/15 10:49:04;;;;;;;;;;;;;;;27.57;44.45;93643.38;5048052;28;9114;-87
2022/09/15 10:51:42;;;;;;;;;;;;;;;27.60;44.55;93642.25;5052980;28;9360;-87
2022/09/15 10:54:14;;;;;;;;;;;;;;;27.61;44.35;93647.25;5067130;28;9000;-88
2022/09/15 10:56:49;;;;;;;;;;;;;;;27.61;44.64;93641.00;5053106;28;9066;-87
2022/09/15 10:59:28;;;;;;;;;;;;;;;27.62;44.80;93642.50;5056116;28;8738;-87
2022/09/15 11:02:13;;;;;;;;;;;;;;;27.62;45.01;93645.97;5053992;28;8894;-87
2022/09/15 11:05:16;;;;;;;;;;;;;;;27.63;44.97;93652.25;5064921;28;8896;-87
2022/09/15 11:08:01;;;;;;;;;;;;;;;27.65;44.80;93652.44;5068736;28;7267;-87
2022/09/15 11:10:40;;;;;;;;;;;;;;;27.63;45.21;93641.94;5037133;28;8790;-87
2022/09/15 11:13:42;;;;;;;;;;;;;;;27.67;44.90;93651.88;5047408;28;7083;-87
2022/09/15 11:16:34;;;;;;;;;;;;;;;27.65;45.04;93641.38;5046554;28;9460;-87
2022/09/15 11:19:38;;;;;;;;;;;;;;;27.62;44.88;93651.50;5050543;28;7623;-87
2022/09/15 11:22:30;;;;;;;;;;;;;;;27.63;44.16;93652.97;5048620;28;7288;-87
2022/09/15 11:25:13;;;;;;;;;;;;;;;27.64;45.06;93648.94;5046823;28;9221;-87
2022/09/15 11:27:56;;;;;;;;;;;;;;;27.66;44.86;93648.41;5046520;28;8671;-87
2022/09/15 11:30:28;;;;;;;;;;;;;;;27.66;44.88;93656.69;5065610;28;9076;-88
2022/09/15 11:33:24;;;;;;;;;;;;;;;27.64;44.66;93648.22;5044120;28;8808;-87
2022/09/15 11:36:22;;;;;;;;;;;;;;;27.60;44.91;93648.53;5043205;28;6877;-87
2022/09/15 11:39:08;;;;;;;;;;;;;;;27.62;44.81;93648.72;4947333;28;9081;-87
2022/09/15 11:41:55;;;;;;;;;;;;;;;27.60;44.81;93643.00;4978652;28;8809;-86
2022/09/15 11:44:29;;;;;;;;;;;;;;;27.62;45.04;93651.50;4947214;28;8757;-86
2022/09/15 11:47:03;;;;;;;;;;;;;;;27.63;44.94;93650.22;4947749;28;9047;-87
2022/09/15 11:49:40;;;;;;;;;;;;;;;27.63;45.08;93650.22;4972462;28;8722;-87
2022/09/15 11:52:43;;;;;;;;;;;;;;;27.64;44.98;93637.16;4961773;28;7283;-88
2022/09/15 11:55:39;;;;;;;;;;;;;;;27.63;44.81;93636.41;4950495;28;9003;-87
2022/09/15 11:58:08;;;;;;;;;;;;;;;27.66;44.89;93633.84;4968947;28;9097;-88
2022/09/15 12:00:47;;;;;;;;;;;;;;;27.64;45.37;93637.88;4965391;28;8830;-87
2022/09/15 12:03:29;;;;;;;;;;;;;;;27.64;44.87;93626.81;4953163;28;7089;-87
2022/09/15 12:06:17;;;;;;;;;;;;;;;27.67;44.77;93636.06;4968393;28;8772;-87
2022/09/15 12:08:56;;;;;;;;;;;;;;;27.67;44.80;93640.84;4985778;28;7247;-88
2022/09/15 12:11:27;;;;;;;;;;;;;;;27.68;45.24;93640.31;4968243;28;9119;-88
2022/09/15 12:13:59;;;;;;;;;;;;;;;27.68;45.27;93647.84;4965708;28;8721;-88
2022/09/15 12:16:32;;;;;;;;;;;;;;;27.66;45.49;93645.66;5026479;28;8753;-87
2022/09/15 12:19:13;;;;;;;;;;;;;;;27.68;44.83;93645.09;5062216;28;9356;-87
2022/09/15 12:21:57;;;;;;;;;;;;;;;27.69;44.93;93655.59;5058597;28;8921;-87
2022/09/15 12:24:44;;;;;;;;;;;;;;;27.68;45.01;93654.13;5051038;28;9362;-87
2022/09/15 12:27:17;;;;;;;;;;;;;;;27.67;44.89;93652.63;5046272;28;7251;-87
2022/09/15 12:30:03;;;;;;;;;;;;;;;27.69;45.27;93658.34;5047159;28;9095;-87
2022/09/15 12:32:33;;;;;;;;;;;;;;;27.70;44.83;93651.56;5047490;28;8655;-87
2022/09/15 12:35:14;;;;;;;;;;;;;;;27.69;45.13;93654.88;5049293;28;7250;-87
2022/09/15 12:37:59;;;;;;;;;;;;;;;27.68;45.16;93647.84;5066526;28;7323;-87
2022/09/15 12:40:25;;;;;;;;;;;;;;;27.69;45.08;93650.06;5045858;28;9022;-87
2022/09/15 12:42:51;;;;;;;;;;;;;;;27.69;45.41;93657.63;5046937;28;7043;-88
2022/09/15 12:45:37;;;;;;;;;;;;;;;27.70;45.09;93656.34;5051172;28;8696;-87
2022/09/15 12:48:14;;;;;;;;;;;;;;;27.71;44.93;93652.31;5060716;28;7038;-87
2022/09/15 12:50:57;;;;;;;;;;;;;;;27.71;45.60;93646.78;5046860;28;8566;-87
2022/09/15 12:53:32;;;;;;;;;;;;;;;27.72;44.86;93642.72;5052931;28;8759;-87
2022/09/15 12:56:04;;;;;;;;;;;;;;;27.68;45.04;93645.09;5048323;28;9204;-88
2022/09/15 12:58:40;;;;;;;;;;;;;;;27.71;44.94;93652.31;5047231;28;9114;-87
2022/09/15 13:01:24;;;;;;;;;;;;;;;27.72;44.99;93649.00;5044872;28;9000;-87
2022/09/15 13:03:53;;;;;;;;;;;;;;;27.72;44.78;93648.25;5066319;28;8102;-87
2022/09/15 13:06:29;;;;;;;;;;;;;;;27.72;44.89;93653.78;5051628;28;7290;-87
2022/09/15 13:09:05;;;;;;;;;;;;;;;27.73;44.52;93642.16;5049064;28;9173;-88
2022/09/15 13:11:49;;;;;;;;;;;;;;;27.72;45.18;93648.25;5037367;28;9029;-88
2022/09/15 13:14:26;;;;;;;;;;;;;;;27.73;45.30;93633.16;5052114;28;7160;-88
2022/09/15 13:17:11;;;;;;;;;;;;;;;27.73;45.08;93644.22;5054614;28;9235;-87
2022/09/15 13:20:07;;;;;;;;;;;;;;;27.73;44.43;93644.22;5051180;28;8930;-87
2022/09/15 13:22:44;;;;;;;;;;;;;;;27.74;44.79;93643.66;5066298;28;8776;-87
2022/09/15 13:25:09;;;;;;;;;;;;;;;27.76;45.13;93654.16;5066625;28;9081;-87
2022/09/15 13:27:35;;;;;;;;;;;;;;;27.75;45.10;93652.69;5075416;28;9190;-87
2022/09/15 13:30:25;;;;;;;;;;;;;;;27.75;44.74;93645.16;5074606;28;8827;-88
2022/09/15 13:33:09;;;;;;;;;;;;;;;27.77;45.11;93650.88;5055862;28;8816;-88
2022/09/15 13:35:43;;;;;;;;;;;;;;;27.77;45.24;93652.91;5060292;28;8738;-88
2022/09/15 13:38:46;;;;;;;;;;;;;;;27.80;45.10;93643.50;5069817;28;9117;-88